sensor_id;sensor_type;location;lat;lon;timestamp;P1;durP1;ratioP1;P2;durP2;ratioP2
16770;SDS011;8503;52.472;13.344;2022-12-07T00:01:18;9.20;;;5.07;;
16770;SDS011;8503;52.472;13.344;2022-12-07T00:02:42;12.43;;;5.25;;
16770;SDS011;8503;52.472;13.344;2022-12-07T00:04:06;8.05;;;4.88;;
16770;SDS011;8503;52.472;13.344;2022-12-07T00:05:31;6.97;;;4.18;;
16770;SDS011;8503;52.472;13.344;2022-12-07T00:06:54;8.13;;;4.55;;
16770;SDS011;8503;52.472;13.344;2022-12-07T00:08:17;9.20;;;5.25;;
16770;SDS011;8503;52.472;13.344;2022-12-07T00:09:40;7.38;;;4.68;;
16770;SDS011;8503;52.472;13.344;2022-12-07T00:11:04;7.38;;;4.88;;
16770;SDS011;8503;52.472;13.344;2022-12-07T00:12:28;9.02;;;4.97;;
16770;SDS011;8503;52.472;13.344;2022-12-07T00:13:51;7.32;;;4.53;;
16770;SDS011;8503;52.472;13.344;2022-12-07T00:15:14;11.35;;;5.10;;
16770;SDS011;8503;52.472;13.344;2022-12-07T00:16:38;11.50;;;5.68;;
16770;SDS011;8503;52.472;13.344;2022-12-07T00:18:02;8.55;;;4.85;;
16770;SDS011;8503;52.472;13.344;2022-12-07T00:19:26;8.73;;;5.00;;
16770;SDS011;8503;52.472;13.344;2022-12-07T00:20:49;9.55;;;5.43;;
16770;SDS011;8503;52.472;13.344;2022-12-07T00:22:11;8.27;;;4.78;;
16770;SDS011;8503;52.472;13.344;2022-12-07T00:23:35;7.30;;;4.53;;
16770;SDS011;8503;52.472;13.344;2022-12-07T00:24:59;7.68;;;4.85;;
16770;SDS011;8503;52.472;13.344;2022-12-07T00:26:23;8.32;;;5.13;;
16770;SDS011;8503;52.472;13.344;2022-12-07T00:27:47;12.13;;;4.80;;
16770;SDS011;8503;52.472;13.344;2022-12-07T00:29:12;7.55;;;5.00;;
16770;SDS011;8503;52.472;13.344;2022-12-07T00:30:37;7.75;;;4.53;;
16770;SDS011;8503;52.472;13.344;2022-12-07T00:32:00;7.20;;;4.85;;
16770;SDS011;8503;52.472;13.344;2022-12-07T00:33:23;7.18;;;4.47;;
16770;SDS011;8503;52.472;13.344;2022-12-07T00:34:47;9.60;;;4.47;;
16770;SDS011;8503;52.472;13.344;2022-12-07T00:36:11;6.53;;;4.35;;
16770;SDS011;8503;52.472;13.344;2022-12-07T00:37:36;6.47;;;4.45;;
16770;SDS011;8503;52.472;13.344;2022-12-07T00:39:00;7.63;;;4.75;;
16770;SDS011;8503;52.472;13.344;2022-12-07T00:40:23;5.50;;;3.72;;
16770;SDS011;8503;52.472;13.344;2022-12-07T00:41:46;6.97;;;4.05;;
16770;SDS011;8503;52.472;13.344;2022-12-07T00:43:09;7.65;;;4.60;;
16770;SDS011;8503;52.472;13.344;2022-12-07T00:44:33;6.50;;;4.45;;
16770;SDS011;8503;52.472;13.344;2022-12-07T00:45:56;7.60;;;4.32;;
16770;SDS011;8503;52.472;13.344;2022-12-07T00:47:20;6.50;;;4.60;;
16770;SDS011;8503;52.472;13.344;2022-12-07T00:48:42;6.28;;;3.72;;
16770;SDS011;8503;52.472;13.344;2022-12-07T00:50:08;8.50;;;4.95;;
16770;SDS011;8503;52.472;13.344;2022-12-07T00:51:32;6.90;;;4.35;;
16770;SDS011;8503;52.472;13.344;2022-12-07T00:52:54;6.82;;;4.13;;
16770;SDS011;8503;52.472;13.344;2022-12-07T00:54:17;8.40;;;3.92;;
16770;SDS011;8503;52.472;13.344;2022-12-07T00:55:41;6.78;;;4.32;;
16770;SDS011;8503;52.472;13.344;2022-12-07T00:57:06;6.78;;;4.13;;
16770;SDS011;8503;52.472;13.344;2022-12-07T00:58:29;6.03;;;4.05;;
16770;SDS011;8503;52.472;13.344;2022-12-07T00:59:52;7.82;;;4.45;;
16770;SDS011;8503;52.472;13.344;2022-12-07T01:01:16;6.57;;;3.85;;
16770;SDS011;8503;52.472;13.344;2022-12-07T01:02:40;7.13;;;3.92;;
16770;SDS011;8503;52.472;13.344;2022-12-07T01:04:03;5.70;;;3.67;;
16770;SDS011;8503;52.472;13.344;2022-12-07T01:05:28;5.90;;;3.20;;
16770;SDS011;8503;52.472;13.344;2022-12-07T01:06:50;7.32;;;4.20;;
16770;SDS011;8503;52.472;13.344;2022-12-07T01:08:14;6.80;;;3.80;;
16770;SDS011;8503;52.472;13.344;2022-12-07T01:09:37;5.15;;;3.30;;
16770;SDS011;8503;52.472;13.344;2022-12-07T01:11:01;6.30;;;3.67;;
16770;SDS011;8503;52.472;13.344;2022-12-07T01:12:24;6.05;;;4.10;;
16770;SDS011;8503;52.472;13.344;2022-12-07T01:13:49;6.20;;;3.47;;
16770;SDS011;8503;52.472;13.344;2022-12-07T01:15:13;7.57;;;3.78;;
16770;SDS011;8503;52.472;13.344;2022-12-07T01:16:35;7.78;;;3.90;;
16770;SDS011;8503;52.472;13.344;2022-12-07T01:18:01;4.25;;;3.38;;
16770;SDS011;8503;52.472;13.344;2022-12-07T01:19:23;6.97;;;3.90;;
16770;SDS011;8503;52.472;13.344;2022-12-07T01:20:57;6.70;;;3.42;;
16770;SDS011;8503;52.472;13.344;2022-12-07T01:22:20;5.10;;;2.72;;
16770;SDS011;8503;52.472;13.344;2022-12-07T01:23:44;4.68;;;3.13;;
16770;SDS011;8503;52.472;13.344;2022-12-07T01:25:08;4.35;;;3.15;;
16770;SDS011;8503;52.472;13.344;2022-12-07T01:26:32;3.10;;;2.60;;
16770;SDS011;8503;52.472;13.344;2022-12-07T01:27:56;8.18;;;3.97;;
16770;SDS011;8503;52.472;13.344;2022-12-07T01:29:19;5.38;;;3.40;;
16770;SDS011;8503;52.472;13.344;2022-12-07T01:30:42;5.57;;;3.33;;
16770;SDS011;8503;52.472;13.344;2022-12-07T01:32:05;6.03;;;3.50;;
16770;SDS011;8503;52.472;13.344;2022-12-07T01:33:29;5.63;;;2.95;;
16770;SDS011;8503;52.472;13.344;2022-12-07T01:34:53;5.22;;;3.40;;
16770;SDS011;8503;52.472;13.344;2022-12-07T01:36:19;4.28;;;2.80;;
16770;SDS011;8503;52.472;13.344;2022-12-07T01:37:42;5.80;;;3.28;;
16770;SDS011;8503;52.472;13.344;2022-12-07T01:39:06;5.45;;;3.10;;
16770;SDS011;8503;52.472;13.344;2022-12-07T01:40:31;5.57;;;3.33;;
16770;SDS011;8503;52.472;13.344;2022-12-07T01:41:54;4.15;;;2.97;;
16770;SDS011;8503;52.472;13.344;2022-12-07T01:43:17;6.90;;;3.13;;
16770;SDS011;8503;52.472;13.344;2022-12-07T01:46:37;4.82;;;2.80;;
16770;SDS011;8503;52.472;13.344;2022-12-07T01:48:00;6.30;;;3.05;;
16770;SDS011;8503;52.472;13.344;2022-12-07T01:49:28;5.07;;;3.03;;
16770;SDS011;8503;52.472;13.344;2022-12-07T01:50:54;5.03;;;3.08;;
16770;SDS011;8503;52.472;13.344;2022-12-07T01:52:21;5.90;;;3.25;;
16770;SDS011;8503;52.472;13.344;2022-12-07T01:53:46;5.10;;;2.97;;
16770;SDS011;8503;52.472;13.344;2022-12-07T01:55:09;4.38;;;3.03;;
16770;SDS011;8503;52.472;13.344;2022-12-07T01:56:35;4.90;;;3.13;;
16770;SDS011;8503;52.472;13.344;2022-12-07T01:57:59;4.90;;;3.10;;
16770;SDS011;8503;52.472;13.344;2022-12-07T01:59:23;5.28;;;3.20;;
16770;SDS011;8503;52.472;13.344;2022-12-07T02:00:47;5.03;;;2.85;;
16770;SDS011;8503;52.472;13.344;2022-12-07T02:02:10;6.90;;;3.60;;
16770;SDS011;8503;52.472;13.344;2022-12-07T02:03:39;6.07;;;3.05;;
16770;SDS011;8503;52.472;13.344;2022-12-07T02:05:04;4.72;;;3.60;;
16770;SDS011;8503;52.472;13.344;2022-12-07T02:06:28;4.93;;;3.35;;
16770;SDS011;8503;52.472;13.344;2022-12-07T02:07:55;5.03;;;3.15;;
16770;SDS011;8503;52.472;13.344;2022-12-07T02:09:19;5.03;;;2.90;;
16770;SDS011;8503;52.472;13.344;2022-12-07T02:10:42;5.65;;;3.28;;
16770;SDS011;8503;52.472;13.344;2022-12-07T02:12:05;5.00;;;3.33;;
16770;SDS011;8503;52.472;13.344;2022-12-07T02:13:29;4.60;;;3.35;;
16770;SDS011;8503;52.472;13.344;2022-12-07T02:14:53;4.90;;;2.70;;
16770;SDS011;8503;52.472;13.344;2022-12-07T02:16:21;4.70;;;3.25;;
16770;SDS011;8503;52.472;13.344;2022-12-07T02:17:49;4.28;;;2.60;;
16770;SDS011;8503;52.472;13.344;2022-12-07T02:21:14;3.92;;;2.70;;
16770;SDS011;8503;52.472;13.344;2022-12-07T02:22:59;6.78;;;3.20;;
16770;SDS011;8503;52.472;13.344;2022-12-07T02:24:39;4.72;;;3.10;;
16770;SDS011;8503;52.472;13.344;2022-12-07T02:26:18;4.20;;;2.95;;
16770;SDS011;8503;52.472;13.344;2022-12-07T02:27:58;5.68;;;3.10;;
16770;SDS011;8503;52.472;13.344;2022-12-07T02:29:27;7.95;;;3.30;;
16770;SDS011;8503;52.472;13.344;2022-12-07T02:30:55;5.50;;;3.22;;
16770;SDS011;8503;52.472;13.344;2022-12-07T02:32:22;6.03;;;3.50;;
16770;SDS011;8503;52.472;13.344;2022-12-07T02:33:49;6.28;;;3.55;;
16770;SDS011;8503;52.472;13.344;2022-12-07T02:35:16;6.68;;;3.55;;
16770;SDS011;8503;52.472;13.344;2022-12-07T02:36:43;4.07;;;3.05;;
16770;SDS011;8503;52.472;13.344;2022-12-07T02:38:13;5.35;;;3.47;;
16770;SDS011;8503;52.472;13.344;2022-12-07T02:39:40;5.10;;;3.20;;
16770;SDS011;8503;52.472;13.344;2022-12-07T02:41:05;4.18;;;2.45;;
16770;SDS011;8503;52.472;13.344;2022-12-07T02:42:33;4.28;;;3.08;;
16770;SDS011;8503;52.472;13.344;2022-12-07T02:43:59;5.50;;;2.90;;
16770;SDS011;8503;52.472;13.344;2022-12-07T02:45:25;5.80;;;3.50;;
16770;SDS011;8503;52.472;13.344;2022-12-07T02:46:51;4.55;;;2.90;;
16770;SDS011;8503;52.472;13.344;2022-12-07T02:48:16;4.40;;;3.05;;
16770;SDS011;8503;52.472;13.344;2022-12-07T02:49:40;7.15;;;3.03;;
16770;SDS011;8503;52.472;13.344;2022-12-07T02:51:04;5.07;;;3.05;;
16770;SDS011;8503;52.472;13.344;2022-12-07T02:52:27;6.57;;;3.13;;
16770;SDS011;8503;52.472;13.344;2022-12-07T02:53:50;6.13;;;3.72;;
16770;SDS011;8503;52.472;13.344;2022-12-07T02:55:14;5.40;;;3.45;;
16770;SDS011;8503;52.472;13.344;2022-12-07T02:56:39;5.68;;;3.03;;
16770;SDS011;8503;52.472;13.344;2022-12-07T02:58:20;5.00;;;2.80;;
16770;SDS011;8503;52.472;13.344;2022-12-07T02:59:53;6.20;;;3.20;;
16770;SDS011;8503;52.472;13.344;2022-12-07T03:01:28;7.53;;;3.50;;
16770;SDS011;8503;52.472;13.344;2022-12-07T03:02:55;5.80;;;3.58;;
16770;SDS011;8503;52.472;13.344;2022-12-07T03:04:25;9.88;;;4.03;;
16770;SDS011;8503;52.472;13.344;2022-12-07T03:06:06;6.93;;;4.18;;
16770;SDS011;8503;52.472;13.344;2022-12-07T03:07:36;4.97;;;3.05;;
16770;SDS011;8503;52.472;13.344;2022-12-07T03:09:06;4.85;;;3.22;;
16770;SDS011;8503;52.472;13.344;2022-12-07T03:10:35;6.50;;;3.28;;
16770;SDS011;8503;52.472;13.344;2022-12-07T03:12:05;6.00;;;3.42;;
16770;SDS011;8503;52.472;13.344;2022-12-07T03:13:32;4.38;;;3.22;;
16770;SDS011;8503;52.472;13.344;2022-12-07T03:14:59;7.07;;;3.90;;
16770;SDS011;8503;52.472;13.344;2022-12-07T03:16:25;6.60;;;3.75;;
16770;SDS011;8503;52.472;13.344;2022-12-07T03:17:52;7.28;;;3.72;;
16770;SDS011;8503;52.472;13.344;2022-12-07T03:19:15;5.30;;;3.40;;
16770;SDS011;8503;52.472;13.344;2022-12-07T03:20:40;5.47;;;3.10;;
16770;SDS011;8503;52.472;13.344;2022-12-07T03:22:05;7.72;;;3.85;;
16770;SDS011;8503;52.472;13.344;2022-12-07T03:23:31;5.20;;;3.47;;
16770;SDS011;8503;52.472;13.344;2022-12-07T03:24:57;6.18;;;3.80;;
16770;SDS011;8503;52.472;13.344;2022-12-07T03:26:21;5.18;;;3.30;;
16770;SDS011;8503;52.472;13.344;2022-12-07T03:27:51;7.30;;;3.60;;
16770;SDS011;8503;52.472;13.344;2022-12-07T03:29:17;6.97;;;3.83;;
16770;SDS011;8503;52.472;13.344;2022-12-07T03:30:46;8.10;;;3.03;;
16770;SDS011;8503;52.472;13.344;2022-12-07T03:32:15;6.45;;;3.58;;
16770;SDS011;8503;52.472;13.344;2022-12-07T03:33:44;5.75;;;3.80;;
16770;SDS011;8503;52.472;13.344;2022-12-07T03:35:11;5.10;;;3.65;;
16770;SDS011;8503;52.472;13.344;2022-12-07T03:36:39;7.65;;;4.15;;
16770;SDS011;8503;52.472;13.344;2022-12-07T03:38:06;5.78;;;3.90;;
16770;SDS011;8503;52.472;13.344;2022-12-07T03:39:37;3.97;;;3.00;;
16770;SDS011;8503;52.472;13.344;2022-12-07T03:41:04;7.25;;;3.80;;
16770;SDS011;8503;52.472;13.344;2022-12-07T03:42:30;6.75;;;3.80;;
16770;SDS011;8503;52.472;13.344;2022-12-07T03:43:54;6.47;;;4.22;;
16770;SDS011;8503;52.472;13.344;2022-12-07T03:45:19;6.68;;;4.10;;
16770;SDS011;8503;52.472;13.344;2022-12-07T03:46:48;6.82;;;4.32;;
16770;SDS011;8503;52.472;13.344;2022-12-07T03:48:18;8.50;;;4.35;;
16770;SDS011;8503;52.472;13.344;2022-12-07T03:49:46;10.48;;;4.38;;
16770;SDS011;8503;52.472;13.344;2022-12-07T03:51:13;7.63;;;3.80;;
16770;SDS011;8503;52.472;13.344;2022-12-07T03:52:42;5.32;;;3.63;;
16770;SDS011;8503;52.472;13.344;2022-12-07T03:54:09;5.75;;;4.05;;
16770;SDS011;8503;52.472;13.344;2022-12-07T03:55:34;7.30;;;3.97;;
16770;SDS011;8503;52.472;13.344;2022-12-07T03:56:59;7.35;;;4.00;;
16770;SDS011;8503;52.472;13.344;2022-12-07T03:58:24;11.23;;;4.07;;
16770;SDS011;8503;52.472;13.344;2022-12-07T03:59:47;7.80;;;4.20;;
16770;SDS011;8503;52.472;13.344;2022-12-07T04:01:10;7.95;;;4.13;;
16770;SDS011;8503;52.472;13.344;2022-12-07T04:02:33;6.20;;;3.72;;
16770;SDS011;8503;52.472;13.344;2022-12-07T04:03:58;10.35;;;4.78;;
16770;SDS011;8503;52.472;13.344;2022-12-07T04:05:22;8.85;;;3.47;;
16770;SDS011;8503;52.472;13.344;2022-12-07T04:06:46;7.68;;;4.47;;
16770;SDS011;8503;52.472;13.344;2022-12-07T04:08:08;16.70;;;5.10;;
16770;SDS011;8503;52.472;13.344;2022-12-07T04:09:32;8.30;;;4.65;;
16770;SDS011;8503;52.472;13.344;2022-12-07T04:10:54;7.72;;;4.50;;
16770;SDS011;8503;52.472;13.344;2022-12-07T04:12:18;10.05;;;5.20;;
16770;SDS011;8503;52.472;13.344;2022-12-07T04:13:41;8.25;;;4.35;;
16770;SDS011;8503;52.472;13.344;2022-12-07T04:15:22;10.15;;;4.90;;
16770;SDS011;8503;52.472;13.344;2022-12-07T04:16:46;9.88;;;5.32;;
16770;SDS011;8503;52.472;13.344;2022-12-07T04:18:10;8.18;;;4.82;;
16770;SDS011;8503;52.472;13.344;2022-12-07T04:19:34;10.98;;;5.18;;
16770;SDS011;8503;52.472;13.344;2022-12-07T04:20:58;8.57;;;5.13;;
16770;SDS011;8503;52.472;13.344;2022-12-07T04:22:21;11.27;;;5.57;;
16770;SDS011;8503;52.472;13.344;2022-12-07T04:23:45;9.70;;;5.25;;
16770;SDS011;8503;52.472;13.344;2022-12-07T04:25:08;8.98;;;5.32;;
16770;SDS011;8503;52.472;13.344;2022-12-07T04:26:31;11.25;;;5.95;;
16770;SDS011;8503;52.472;13.344;2022-12-07T04:27:54;9.52;;;5.47;;
16770;SDS011;8503;52.472;13.344;2022-12-07T04:29:18;8.75;;;5.20;;
16770;SDS011;8503;52.472;13.344;2022-12-07T04:30:40;10.60;;;5.65;;
16770;SDS011;8503;52.472;13.344;2022-12-07T04:32:04;9.82;;;5.50;;
16770;SDS011;8503;52.472;13.344;2022-12-07T04:33:26;9.68;;;5.45;;
16770;SDS011;8503;52.472;13.344;2022-12-07T04:34:51;10.93;;;6.53;;
16770;SDS011;8503;52.472;13.344;2022-12-07T04:36:16;9.20;;;5.35;;
16770;SDS011;8503;52.472;13.344;2022-12-07T04:37:40;13.48;;;6.53;;
16770;SDS011;8503;52.472;13.344;2022-12-07T04:39:04;17.15;;;6.85;;
16770;SDS011;8503;52.472;13.344;2022-12-07T04:40:29;11.98;;;6.68;;
16770;SDS011;8503;52.472;13.344;2022-12-07T04:41:51;12.43;;;7.00;;
16770;SDS011;8503;52.472;13.344;2022-12-07T04:43:15;19.45;;;6.85;;
16770;SDS011;8503;52.472;13.344;2022-12-07T04:44:38;11.13;;;6.47;;
16770;SDS011;8503;52.472;13.344;2022-12-07T04:46:01;14.43;;;7.32;;
16770;SDS011;8503;52.472;13.344;2022-12-07T04:47:24;14.25;;;6.32;;
16770;SDS011;8503;52.472;13.344;2022-12-07T04:48:52;11.52;;;5.82;;
16770;SDS011;8503;52.472;13.344;2022-12-07T04:50:18;13.45;;;6.47;;
16770;SDS011;8503;52.472;13.344;2022-12-07T04:51:41;10.10;;;6.40;;
16770;SDS011;8503;52.472;13.344;2022-12-07T04:53:04;15.40;;;7.78;;
16770;SDS011;8503;52.472;13.344;2022-12-07T04:54:29;10.95;;;6.40;;
16770;SDS011;8503;52.472;13.344;2022-12-07T04:55:52;17.10;;;7.43;;
16770;SDS011;8503;52.472;13.344;2022-12-07T04:57:16;12.68;;;7.55;;
16770;SDS011;8503;52.472;13.344;2022-12-07T04:58:39;12.23;;;6.55;;
16770;SDS011;8503;52.472;13.344;2022-12-07T05:00:02;13.85;;;6.93;;
16770;SDS011;8503;52.472;13.344;2022-12-07T05:01:26;13.20;;;7.85;;
16770;SDS011;8503;52.472;13.344;2022-12-07T05:02:49;12.38;;;7.20;;
16770;SDS011;8503;52.472;13.344;2022-12-07T05:04:12;15.02;;;7.53;;
16770;SDS011;8503;52.472;13.344;2022-12-07T05:05:40;12.63;;;7.47;;
16770;SDS011;8503;52.472;13.344;2022-12-07T05:07:04;15.02;;;7.30;;
16770;SDS011;8503;52.472;13.344;2022-12-07T05:08:27;13.35;;;7.07;;
16770;SDS011;8503;52.472;13.344;2022-12-07T05:09:51;14.70;;;7.97;;
16770;SDS011;8503;52.472;13.344;2022-12-07T05:11:15;15.50;;;8.70;;
16770;SDS011;8503;52.472;13.344;2022-12-07T05:12:52;14.45;;;6.90;;
16770;SDS011;8503;52.472;13.344;2022-12-07T05:14:16;14.20;;;7.32;;
16770;SDS011;8503;52.472;13.344;2022-12-07T05:15:40;19.50;;;8.00;;
16770;SDS011;8503;52.472;13.344;2022-12-07T05:17:05;13.05;;;7.68;;
16770;SDS011;8503;52.472;13.344;2022-12-07T05:18:27;18.13;;;7.85;;
16770;SDS011;8503;52.472;13.344;2022-12-07T05:19:51;13.50;;;6.97;;
16770;SDS011;8503;52.472;13.344;2022-12-07T05:21:15;15.35;;;7.82;;
16770;SDS011;8503;52.472;13.344;2022-12-07T05:22:38;16.00;;;8.35;;
16770;SDS011;8503;52.472;13.344;2022-12-07T05:24:01;15.07;;;7.88;;
16770;SDS011;8503;52.472;13.344;2022-12-07T05:25:25;17.45;;;7.72;;
16770;SDS011;8503;52.472;13.344;2022-12-07T05:26:49;16.88;;;7.40;;
16770;SDS011;8503;52.472;13.344;2022-12-07T05:28:12;16.00;;;8.68;;
16770;SDS011;8503;52.472;13.344;2022-12-07T05:29:36;15.93;;;7.93;;
16770;SDS011;8503;52.472;13.344;2022-12-07T05:30:59;13.38;;;8.10;;
16770;SDS011;8503;52.472;13.344;2022-12-07T05:32:23;17.42;;;8.40;;
16770;SDS011;8503;52.472;13.344;2022-12-07T05:33:46;19.77;;;7.78;;
16770;SDS011;8503;52.472;13.344;2022-12-07T05:35:09;16.25;;;7.70;;
16770;SDS011;8503;52.472;13.344;2022-12-07T05:36:33;16.13;;;8.55;;
16770;SDS011;8503;52.472;13.344;2022-12-07T05:37:57;15.10;;;8.13;;
16770;SDS011;8503;52.472;13.344;2022-12-07T05:39:45;14.73;;;8.23;;
16770;SDS011;8503;52.472;13.344;2022-12-07T05:41:09;14.90;;;8.55;;
16770;SDS011;8503;52.472;13.344;2022-12-07T05:42:49;15.90;;;8.23;;
16770;SDS011;8503;52.472;13.344;2022-12-07T05:44:12;17.25;;;8.68;;
16770;SDS011;8503;52.472;13.344;2022-12-07T05:45:37;16.98;;;8.85;;
16770;SDS011;8503;52.472;13.344;2022-12-07T05:47:00;16.85;;;8.85;;
16770;SDS011;8503;52.472;13.344;2022-12-07T05:48:24;14.95;;;8.23;;
16770;SDS011;8503;52.472;13.344;2022-12-07T05:49:47;16.27;;;8.27;;
16770;SDS011;8503;52.472;13.344;2022-12-07T05:51:12;20.27;;;9.30;;
16770;SDS011;8503;52.472;13.344;2022-12-07T05:52:36;17.40;;;8.32;;
16770;SDS011;8503;52.472;13.344;2022-12-07T05:53:59;22.98;;;11.50;;
16770;SDS011;8503;52.472;13.344;2022-12-07T05:55:22;17.70;;;9.20;;
16770;SDS011;8503;52.472;13.344;2022-12-07T05:56:45;19.83;;;9.82;;
16770;SDS011;8503;52.472;13.344;2022-12-07T05:58:08;14.07;;;8.40;;
16770;SDS011;8503;52.472;13.344;2022-12-07T05:59:49;16.50;;;8.30;;
16770;SDS011;8503;52.472;13.344;2022-12-07T06:01:12;18.77;;;9.20;;
16770;SDS011;8503;52.472;13.344;2022-12-07T06:02:35;16.75;;;8.30;;
16770;SDS011;8503;52.472;13.344;2022-12-07T06:03:58;18.77;;;9.50;;
16770;SDS011;8503;52.472;13.344;2022-12-07T06:05:21;20.33;;;9.68;;
16770;SDS011;8503;52.472;13.344;2022-12-07T06:06:44;16.85;;;9.02;;
16770;SDS011;8503;52.472;13.344;2022-12-07T06:08:08;17.92;;;8.95;;
16770;SDS011;8503;52.472;13.344;2022-12-07T06:09:32;18.17;;;9.93;;
16770;SDS011;8503;52.472;13.344;2022-12-07T06:10:56;20.45;;;9.80;;
16770;SDS011;8503;52.472;13.344;2022-12-07T06:12:33;17.42;;;9.57;;
16770;SDS011;8503;52.472;13.344;2022-12-07T06:13:56;18.00;;;9.48;;
16770;SDS011;8503;52.472;13.344;2022-12-07T06:15:19;16.05;;;9.57;;
16770;SDS011;8503;52.472;13.344;2022-12-07T06:16:44;22.83;;;9.70;;
16770;SDS011;8503;52.472;13.344;2022-12-07T06:18:06;19.70;;;9.98;;
16770;SDS011;8503;52.472;13.344;2022-12-07T06:19:30;20.08;;;9.73;;
16770;SDS011;8503;52.472;13.344;2022-12-07T06:20:53;20.83;;;9.75;;
16770;SDS011;8503;52.472;13.344;2022-12-07T06:22:17;19.42;;;9.48;;
16770;SDS011;8503;52.472;13.344;2022-12-07T06:23:42;17.88;;;9.20;;
16770;SDS011;8503;52.472;13.344;2022-12-07T06:25:05;14.60;;;8.40;;
16770;SDS011;8503;52.472;13.344;2022-12-07T06:26:30;18.17;;;9.18;;
16770;SDS011;8503;52.472;13.344;2022-12-07T06:27:52;19.83;;;8.82;;
16770;SDS011;8503;52.472;13.344;2022-12-07T06:29:16;15.63;;;8.32;;
16770;SDS011;8503;52.472;13.344;2022-12-07T06:30:40;19.52;;;9.25;;
16770;SDS011;8503;52.472;13.344;2022-12-07T06:32:03;14.95;;;8.38;;
16770;SDS011;8503;52.472;13.344;2022-12-07T06:33:27;16.70;;;8.85;;
16770;SDS011;8503;52.472;13.344;2022-12-07T06:34:50;17.17;;;9.90;;
16770;SDS011;8503;52.472;13.344;2022-12-07T06:36:14;16.40;;;8.38;;
16770;SDS011;8503;52.472;13.344;2022-12-07T06:37:36;17.63;;;9.85;;
16770;SDS011;8503;52.472;13.344;2022-12-07T06:39:01;16.58;;;9.90;;
16770;SDS011;8503;52.472;13.344;2022-12-07T06:40:24;16.45;;;8.98;;
16770;SDS011;8503;52.472;13.344;2022-12-07T06:41:48;15.43;;;8.35;;
16770;SDS011;8503;52.472;13.344;2022-12-07T06:43:11;19.65;;;9.48;;
16770;SDS011;8503;52.472;13.344;2022-12-07T06:44:34;19.58;;;9.13;;
16770;SDS011;8503;52.472;13.344;2022-12-07T06:45:57;15.82;;;8.93;;
16770;SDS011;8503;52.472;13.344;2022-12-07T06:47:20;15.32;;;8.90;;
16770;SDS011;8503;52.472;13.344;2022-12-07T06:49:02;16.55;;;9.65;;
16770;SDS011;8503;52.472;13.344;2022-12-07T06:50:26;16.90;;;9.00;;
16770;SDS011;8503;52.472;13.344;2022-12-07T06:51:49;20.05;;;9.48;;
16770;SDS011;8503;52.472;13.344;2022-12-07T06:53:15;17.55;;;8.95;;
16770;SDS011;8503;52.472;13.344;2022-12-07T06:54:40;21.00;;;10.05;;
16770;SDS011;8503;52.472;13.344;2022-12-07T06:56:03;20.17;;;9.10;;
16770;SDS011;8503;52.472;13.344;2022-12-07T06:57:27;20.95;;;10.60;;
16770;SDS011;8503;52.472;13.344;2022-12-07T06:58:51;19.10;;;9.73;;
16770;SDS011;8503;52.472;13.344;2022-12-07T07:00:15;19.33;;;8.98;;
16770;SDS011;8503;52.472;13.344;2022-12-07T07:01:42;22.25;;;9.68;;
16770;SDS011;8503;52.472;13.344;2022-12-07T07:03:06;15.23;;;9.35;;
16770;SDS011;8503;52.472;13.344;2022-12-07T07:04:29;17.73;;;9.65;;
16770;SDS011;8503;52.472;13.344;2022-12-07T07:05:53;16.27;;;8.65;;
16770;SDS011;8503;52.472;13.344;2022-12-07T07:07:16;19.00;;;9.40;;
16770;SDS011;8503;52.472;13.344;2022-12-07T07:08:40;16.17;;;8.68;;
16770;SDS011;8503;52.472;13.344;2022-12-07T07:10:05;15.90;;;9.40;;
16770;SDS011;8503;52.472;13.344;2022-12-07T07:11:29;17.92;;;9.38;;
16770;SDS011;8503;52.472;13.344;2022-12-07T07:12:53;15.02;;;8.77;;
16770;SDS011;8503;52.472;13.344;2022-12-07T07:14:18;18.13;;;8.80;;
16770;SDS011;8503;52.472;13.344;2022-12-07T07:15:42;20.95;;;9.93;;
16770;SDS011;8503;52.472;13.344;2022-12-07T07:17:05;16.27;;;8.70;;
16770;SDS011;8503;52.472;13.344;2022-12-07T07:18:29;16.17;;;9.27;;
16770;SDS011;8503;52.472;13.344;2022-12-07T07:19:52;17.05;;;8.32;;
16770;SDS011;8503;52.472;13.344;2022-12-07T07:21:16;18.63;;;9.73;;
16770;SDS011;8503;52.472;13.344;2022-12-07T07:22:39;18.00;;;9.48;;
16770;SDS011;8503;52.472;13.344;2022-12-07T07:24:03;20.95;;;9.38;;
16770;SDS011;8503;52.472;13.344;2022-12-07T07:25:28;16.92;;;8.63;;
16770;SDS011;8503;52.472;13.344;2022-12-07T07:26:51;15.63;;;9.43;;
16770;SDS011;8503;52.472;13.344;2022-12-07T07:28:15;17.02;;;8.65;;
16770;SDS011;8503;52.472;13.344;2022-12-07T07:29:38;17.13;;;8.75;;
16770;SDS011;8503;52.472;13.344;2022-12-07T07:31:02;15.60;;;8.93;;
16770;SDS011;8503;52.472;13.344;2022-12-07T07:32:26;14.13;;;7.57;;
16770;SDS011;8503;52.472;13.344;2022-12-07T07:33:49;19.55;;;9.25;;
16770;SDS011;8503;52.472;13.344;2022-12-07T07:35:12;15.45;;;8.55;;
16770;SDS011;8503;52.472;13.344;2022-12-07T07:36:36;23.25;;;9.02;;
16770;SDS011;8503;52.472;13.344;2022-12-07T07:38:00;13.98;;;8.23;;
16770;SDS011;8503;52.472;13.344;2022-12-07T07:39:23;17.05;;;8.35;;
16770;SDS011;8503;52.472;13.344;2022-12-07T07:40:47;14.70;;;8.10;;
16770;SDS011;8503;52.472;13.344;2022-12-07T07:42:10;15.75;;;7.43;;
16770;SDS011;8503;52.472;13.344;2022-12-07T07:43:34;14.07;;;7.68;;
16770;SDS011;8503;52.472;13.344;2022-12-07T07:44:57;17.40;;;8.32;;
16770;SDS011;8503;52.472;13.344;2022-12-07T07:46:21;15.95;;;8.20;;
16770;SDS011;8503;52.472;13.344;2022-12-07T07:47:44;17.60;;;8.57;;
16770;SDS011;8503;52.472;13.344;2022-12-07T07:49:08;17.90;;;8.05;;
16770;SDS011;8503;52.472;13.344;2022-12-07T07:50:32;18.13;;;9.20;;
16770;SDS011;8503;52.472;13.344;2022-12-07T07:51:55;13.82;;;7.88;;
16770;SDS011;8503;52.472;13.344;2022-12-07T07:53:19;15.15;;;8.05;;
16770;SDS011;8503;52.472;13.344;2022-12-07T07:54:42;11.57;;;6.47;;
16770;SDS011;8503;52.472;13.344;2022-12-07T07:56:07;11.95;;;6.78;;
16770;SDS011;8503;52.472;13.344;2022-12-07T07:57:30;11.65;;;6.72;;
16770;SDS011;8503;52.472;13.344;2022-12-07T07:58:54;15.00;;;6.97;;
16770;SDS011;8503;52.472;13.344;2022-12-07T08:00:20;12.48;;;6.50;;
16770;SDS011;8503;52.472;13.344;2022-12-07T08:01:44;13.88;;;6.10;;
16770;SDS011;8503;52.472;13.344;2022-12-07T08:03:07;10.52;;;6.72;;
16770;SDS011;8503;52.472;13.344;2022-12-07T08:04:31;13.98;;;6.43;;
16770;SDS011;8503;52.472;13.344;2022-12-07T08:05:55;11.75;;;6.00;;
16770;SDS011;8503;52.472;13.344;2022-12-07T08:07:18;14.00;;;5.65;;
16770;SDS011;8503;52.472;13.344;2022-12-07T08:08:42;8.20;;;5.43;;
16770;SDS011;8503;52.472;13.344;2022-12-07T08:10:06;8.63;;;4.75;;
16770;SDS011;8503;52.472;13.344;2022-12-07T08:11:32;9.60;;;6.22;;
16770;SDS011;8503;52.472;13.344;2022-12-07T08:12:56;10.82;;;5.80;;
16770;SDS011;8503;52.472;13.344;2022-12-07T08:14:35;14.30;;;6.63;;
16770;SDS011;8503;52.472;13.344;2022-12-07T08:15:59;10.52;;;5.32;;
16770;SDS011;8503;52.472;13.344;2022-12-07T08:17:26;9.80;;;5.07;;
16770;SDS011;8503;52.472;13.344;2022-12-07T08:18:50;10.25;;;5.50;;
16770;SDS011;8503;52.472;13.344;2022-12-07T08:20:13;15.77;;;6.53;;
16770;SDS011;8503;52.472;13.344;2022-12-07T08:21:37;8.85;;;5.43;;
16770;SDS011;8503;52.472;13.344;2022-12-07T08:23:25;8.02;;;4.57;;
16770;SDS011;8503;52.472;13.344;2022-12-07T08:25:13;10.68;;;4.65;;
16770;SDS011;8503;52.472;13.344;2022-12-07T08:27:02;8.73;;;3.85;;
16770;SDS011;8503;52.472;13.344;2022-12-07T08:28:50;6.53;;;4.10;;
16770;SDS011;8503;52.472;13.344;2022-12-07T08:30:37;4.90;;;3.60;;
16770;SDS011;8503;52.472;13.344;2022-12-07T08:32:25;4.53;;;2.95;;
16770;SDS011;8503;52.472;13.344;2022-12-07T08:34:13;6.50;;;3.25;;
16770;SDS011;8503;52.472;13.344;2022-12-07T08:36:01;9.35;;;3.58;;